Terminal Aerodrome Forecast
Issued by NWS Cleveland, OH

Home | Current Version | Previous Version | Graphics & Text | Print | Product List | Glossary On
Versions: 1 2 3 4 5 6 7 8 9 10 11 12 13 14 15 16 17 18 19
000
FTUS41 KCLE 292300
TAFMFD
TAF
KMFD 292338Z 3000/3024 18018G30KT P6SM VCSH OVC050
     FM300800 27018G30KT 5SM -SHRA OVC025
     FM301400 27012G20KT P6SM BKN035=

USA.gov is the U.S. government's official web portal to all federal, state and local government web resources and services.